sensor_id;sensor_type;location;lat;lon;timestamp;temperature;humidity
6008;DHT22;3032;49.484;11.112;2023-10-13T00:02:05;18.00;99.90
6008;DHT22;3032;49.484;11.112;2023-10-13T00:04:32;17.90;99.90
6008;DHT22;3032;49.484;11.112;2023-10-13T00:07:02;17.80;99.90
6008;DHT22;3032;49.484;11.112;2023-10-13T00:09:28;17.90;99.90
6008;DHT22;3032;49.484;11.112;2023-10-13T00:12:07;17.80;99.90
6008;DHT22;3032;49.484;11.112;2023-10-13T00:14:39;18.30;99.90
6008;DHT22;3032;49.484;11.112;2023-10-13T00:17:07;18.00;99.90
6008;DHT22;3032;49.484;11.112;2023-10-13T00:19:35;18.00;99.90
6008;DHT22;3032;49.484;11.112;2023-10-13T00:22:10;18.20;99.90
6008;DHT22;3032;49.484;11.112;2023-10-13T00:24:37;17.80;99.90
6008;DHT22;3032;49.484;11.112;2023-10-13T00:27:19;17.60;99.90
6008;DHT22;3032;49.484;11.112;2023-10-13T00:30:02;17.50;99.90
6008;DHT22;3032;49.484;11.112;2023-10-13T00:32:41;17.60;99.90
6008;DHT22;3032;49.484;11.112;2023-10-13T00:35:09;17.80;99.90
6008;DHT22;3032;49.484;11.112;2023-10-13T00:37:38;17.70;99.90
6008;DHT22;3032;49.484;11.112;2023-10-13T00:40:12;17.50;99.90
6008;DHT22;3032;49.484;11.112;2023-10-13T00:43:10;17.50;99.90
6008;DHT22;3032;49.484;11.112;2023-10-13T00:45:46;17.60;99.90
6008;DHT22;3032;49.484;11.112;2023-10-13T00:48:14;17.50;99.90
6008;DHT22;3032;49.484;11.112;2023-10-13T00:50:41;17.60;99.90
6008;DHT22;3032;49.484;11.112;2023-10-13T00:53:08;17.70;99.90
6008;DHT22;3032;49.484;11.112;2023-10-13T00:55:34;17.70;99.90
6008;DHT22;3032;49.484;11.112;2023-10-13T00:58:01;17.80;99.90
6008;DHT22;3032;49.484;11.112;2023-10-13T01:00:29;17.70;99.90
6008;DHT22;3032;49.484;11.112;2023-10-13T01:02:55;17.40;99.90
6008;DHT22;3032;49.484;11.112;2023-10-13T01:05:22;17.40;99.90
6008;DHT22;3032;49.484;11.112;2023-10-13T01:07:49;17.50;99.90
6008;DHT22;3032;49.484;11.112;2023-10-13T01:10:19;17.60;99.90
6008;DHT22;3032;49.484;11.112;2023-10-13T01:12:48;17.50;99.90
6008;DHT22;3032;49.484;11.112;2023-10-13T01:15:18;17.60;99.90
6008;DHT22;3032;49.484;11.112;2023-10-13T01:17:46;17.80;99.90
6008;DHT22;3032;49.484;11.112;2023-10-13T01:20:16;17.90;99.90
6008;DHT22;3032;49.484;11.112;2023-10-13T01:22:51;17.80;99.90
6008;DHT22;3032;49.484;11.112;2023-10-13T01:25:25;17.90;99.90
6008;DHT22;3032;49.484;11.112;2023-10-13T01:27:53;18.00;99.90
6008;DHT22;3032;49.484;11.112;2023-10-13T01:30:20;17.60;99.90
6008;DHT22;3032;49.484;11.112;2023-10-13T01:32:50;17.50;99.90
6008;DHT22;3032;49.484;11.112;2023-10-13T01:35:17;17.30;99.90
6008;DHT22;3032;49.484;11.112;2023-10-13T01:37:45;17.00;99.90
6008;DHT22;3032;49.484;11.112;2023-10-13T01:40:11;17.20;99.90
6008;DHT22;3032;49.484;11.112;2023-10-13T01:42:45;17.30;99.90
6008;DHT22;3032;49.484;11.112;2023-10-13T01:45:11;17.30;99.90
6008;DHT22;3032;49.484;11.112;2023-10-13T01:47:39;17.40;99.90
6008;DHT22;3032;49.484;11.112;2023-10-13T01:50:06;17.40;99.90
6008;DHT22;3032;49.484;11.112;2023-10-13T01:52:39;17.30;99.90
6008;DHT22;3032;49.484;11.112;2023-10-13T01:55:07;17.30;99.90
6008;DHT22;3032;49.484;11.112;2023-10-13T01:57:35;17.40;99.90
6008;DHT22;3032;49.484;11.112;2023-10-13T02:00:01;17.40;99.90
6008;DHT22;3032;49.484;11.112;2023-10-13T02:02:36;17.50;99.90
6008;DHT22;3032;49.484;11.112;2023-10-13T02:05:03;17.50;99.90
6008;DHT22;3032;49.484;11.112;2023-10-13T02:07:29;17.60;99.90
6008;DHT22;3032;49.484;11.112;2023-10-13T02:09:58;17.90;99.90
6008;DHT22;3032;49.484;11.112;2023-10-13T02:12:23;17.90;99.90
6008;DHT22;3032;49.484;11.112;2023-10-13T02:14:54;18.40;99.90
6008;DHT22;3032;49.484;11.112;2023-10-13T02:17:20;18.00;99.90
6008;DHT22;3032;49.484;11.112;2023-10-13T02:19:47;18.00;99.90
6008;DHT22;3032;49.484;11.112;2023-10-13T02:22:17;18.00;99.90
6008;DHT22;3032;49.484;11.112;2023-10-13T02:24:52;18.10;99.90
6008;DHT22;3032;49.484;11.112;2023-10-13T02:27:18;18.30;99.90
6008;DHT22;3032;49.484;11.112;2023-10-13T02:29:49;18.40;99.90
6008;DHT22;3032;49.484;11.112;2023-10-13T02:32:15;18.40;99.90
6008;DHT22;3032;49.484;11.112;2023-10-13T02:34:47;18.40;99.90
6008;DHT22;3032;49.484;11.112;2023-10-13T02:37:13;18.90;99.90
6008;DHT22;3032;49.484;11.112;2023-10-13T02:39:39;18.40;99.90
6008;DHT22;3032;49.484;11.112;2023-10-13T02:42:07;18.30;99.90
6008;DHT22;3032;49.484;11.112;2023-10-13T02:44:36;18.20;99.90
6008;DHT22;3032;49.484;11.112;2023-10-13T02:47:03;18.40;99.90
6008;DHT22;3032;49.484;11.112;2023-10-13T02:49:39;19.00;99.90
6008;DHT22;3032;49.484;11.112;2023-10-13T02:52:09;18.80;99.90
6008;DHT22;3032;49.484;11.112;2023-10-13T02:54:35;18.40;99.90
6008;DHT22;3032;49.484;11.112;2023-10-13T02:57:21;18.30;99.90
6008;DHT22;3032;49.484;11.112;2023-10-13T02:59:48;17.80;99.90
6008;DHT22;3032;49.484;11.112;2023-10-13T03:02:22;18.00;99.90
6008;DHT22;3032;49.484;11.112;2023-10-13T03:04:56;18.00;99.90
6008;DHT22;3032;49.484;11.112;2023-10-13T03:07:28;18.30;99.90
6008;DHT22;3032;49.484;11.112;2023-10-13T03:09:58;18.10;99.90
6008;DHT22;3032;49.484;11.112;2023-10-13T03:12:44;18.30;99.90
6008;DHT22;3032;49.484;11.112;2023-10-13T03:15:14;18.40;99.90
6008;DHT22;3032;49.484;11.112;2023-10-13T03:17:46;18.20;99.90
6008;DHT22;3032;49.484;11.112;2023-10-13T03:20:13;18.20;99.90
6008;DHT22;3032;49.484;11.112;2023-10-13T03:22:41;18.40;99.90
6008;DHT22;3032;49.484;11.112;2023-10-13T03:25:13;18.40;99.90
6008;DHT22;3032;49.484;11.112;2023-10-13T03:27:49;18.50;99.90
6008;DHT22;3032;49.484;11.112;2023-10-13T03:30:18;18.40;99.90
6008;DHT22;3032;49.484;11.112;2023-10-13T03:32:45;18.50;99.90
6008;DHT22;3032;49.484;11.112;2023-10-13T03:35:12;18.40;99.90
6008;DHT22;3032;49.484;11.112;2023-10-13T03:37:54;18.30;99.90
6008;DHT22;3032;49.484;11.112;2023-10-13T03:40:21;18.20;99.90
6008;DHT22;3032;49.484;11.112;2023-10-13T03:42:52;18.30;99.90
6008;DHT22;3032;49.484;11.112;2023-10-13T03:45:32;18.20;99.90
6008;DHT22;3032;49.484;11.112;2023-10-13T03:48:23;18.30;99.90
6008;DHT22;3032;49.484;11.112;2023-10-13T03:53:39;18.40;99.90
6008;DHT22;3032;49.484;11.112;2023-10-13T03:56:25;18.40;99.90
6008;DHT22;3032;49.484;11.112;2023-10-13T03:58:58;18.40;99.90
6008;DHT22;3032;49.484;11.112;2023-10-13T04:01:29;18.40;99.90
6008;DHT22;3032;49.484;11.112;2023-10-13T04:04:00;18.40;99.90
6008;DHT22;3032;49.484;11.112;2023-10-13T04:06:32;18.40;99.90
6008;DHT22;3032;49.484;11.112;2023-10-13T04:09:20;18.10;99.90
6008;DHT22;3032;49.484;11.112;2023-10-13T04:12:05;17.80;99.90
6008;DHT22;3032;49.484;11.112;2023-10-13T04:14:42;17.60;99.90
6008;DHT22;3032;49.484;11.112;2023-10-13T04:17:26;17.50;99.90
6008;DHT22;3032;49.484;11.112;2023-10-13T04:19:56;17.70;99.90
6008;DHT22;3032;49.484;11.112;2023-10-13T04:22:45;17.60;99.90
6008;DHT22;3032;49.484;11.112;2023-10-13T04:25:24;17.60;99.90
6008;DHT22;3032;49.484;11.112;2023-10-13T04:28:10;17.80;99.90
6008;DHT22;3032;49.484;11.112;2023-10-13T04:36:10;18.10;99.90
6008;DHT22;3032;49.484;11.112;2023-10-13T04:38:51;18.00;99.90
6008;DHT22;3032;49.484;11.112;2023-10-13T04:41:30;18.30;99.90
6008;DHT22;3032;49.484;11.112;2023-10-13T04:44:00;17.60;99.90
6008;DHT22;3032;49.484;11.112;2023-10-13T04:46:52;17.80;99.90
6008;DHT22;3032;49.484;11.112;2023-10-13T04:49:21;17.90;99.90
6008;DHT22;3032;49.484;11.112;2023-10-13T04:51:56;17.80;99.90
6008;DHT22;3032;49.484;11.112;2023-10-13T04:54:40;17.90;99.90
6008;DHT22;3032;49.484;11.112;2023-10-13T04:57:20;18.10;99.90
6008;DHT22;3032;49.484;11.112;2023-10-13T04:59:51;18.00;99.90
6008;DHT22;3032;49.484;11.112;2023-10-13T05:02:32;18.60;99.90
6008;DHT22;3032;49.484;11.112;2023-10-13T05:05:02;18.30;99.90
6008;DHT22;3032;49.484;11.112;2023-10-13T05:07:31;18.40;99.90
6008;DHT22;3032;49.484;11.112;2023-10-13T05:10:15;18.60;99.90
6008;DHT22;3032;49.484;11.112;2023-10-13T05:12:59;18.50;99.90
6008;DHT22;3032;49.484;11.112;2023-10-13T05:15:46;18.40;99.90
6008;DHT22;3032;49.484;11.112;2023-10-13T05:18:30;18.30;99.90
6008;DHT22;3032;49.484;11.112;2023-10-13T05:21:14;18.20;99.90
6008;DHT22;3032;49.484;11.112;2023-10-13T05:24:00;18.30;99.90
6008;DHT22;3032;49.484;11.112;2023-10-13T05:26:44;18.40;99.90
6008;DHT22;3032;49.484;11.112;2023-10-13T05:29:28;18.20;99.90
6008;DHT22;3032;49.484;11.112;2023-10-13T05:32:12;17.80;99.90
6008;DHT22;3032;49.484;11.112;2023-10-13T05:34:57;17.30;99.90
6008;DHT22;3032;49.484;11.112;2023-10-13T05:37:41;17.30;99.90
6008;DHT22;3032;49.484;11.112;2023-10-13T05:40:25;17.60;99.90
6008;DHT22;3032;49.484;11.112;2023-10-13T05:43:09;17.90;99.90
6008;DHT22;3032;49.484;11.112;2023-10-13T05:45:53;18.30;99.90
6008;DHT22;3032;49.484;11.112;2023-10-13T05:48:47;18.50;99.90
6008;DHT22;3032;49.484;11.112;2023-10-13T05:51:29;18.60;99.90
6008;DHT22;3032;49.484;11.112;2023-10-13T05:54:10;18.70;99.90
6008;DHT22;3032;49.484;11.112;2023-10-13T05:56:44;18.80;99.90
6008;DHT22;3032;49.484;11.112;2023-10-13T05:59:30;18.80;99.90
6008;DHT22;3032;49.484;11.112;2023-10-13T06:02:18;19.00;99.90
6008;DHT22;3032;49.484;11.112;2023-10-13T06:05:03;19.00;99.90
6008;DHT22;3032;49.484;11.112;2023-10-13T06:07:47;19.10;99.90
6008;DHT22;3032;49.484;11.112;2023-10-13T06:10:32;19.20;99.90
6008;DHT22;3032;49.484;11.112;2023-10-13T06:13:16;19.30;99.90
6008;DHT22;3032;49.484;11.112;2023-10-13T06:16:08;19.50;99.90
6008;DHT22;3032;49.484;11.112;2023-10-13T06:18:51;19.60;99.90
6008;DHT22;3032;49.484;11.112;2023-10-13T06:21:36;19.90;99.90
6008;DHT22;3032;49.484;11.112;2023-10-13T06:24:20;20.20;99.90
6008;DHT22;3032;49.484;11.112;2023-10-13T06:27:04;20.30;99.90
6008;DHT22;3032;49.484;11.112;2023-10-13T06:29:48;20.70;99.90
6008;DHT22;3032;49.484;11.112;2023-10-13T06:32:14;20.90;99.90
6008;DHT22;3032;49.484;11.112;2023-10-13T06:34:42;21.10;99.90
6008;DHT22;3032;49.484;11.112;2023-10-13T06:37:16;21.60;99.90
6008;DHT22;3032;49.484;11.112;2023-10-13T06:39:49;22.50;99.90
6008;DHT22;3032;49.484;11.112;2023-10-13T06:42:15;23.40;99.90
6008;DHT22;3032;49.484;11.112;2023-10-13T06:44:42;23.10;99.90
6008;DHT22;3032;49.484;11.112;2023-10-13T06:47:12;23.00;99.90
6008;DHT22;3032;49.484;11.112;2023-10-13T06:49:39;23.20;99.90
6008;DHT22;3032;49.484;11.112;2023-10-13T06:52:05;24.10;99.90
6008;DHT22;3032;49.484;11.112;2023-10-13T06:54:35;24.50;99.90
6008;DHT22;3032;49.484;11.112;2023-10-13T06:57:02;25.70;99.90
6008;DHT22;3032;49.484;11.112;2023-10-13T06:59:32;25.70;99.90
6008;DHT22;3032;49.484;11.112;2023-10-13T07:02:00;26.50;99.90
6008;DHT22;3032;49.484;11.112;2023-10-13T07:04:35;26.50;99.50
6008;DHT22;3032;49.484;11.112;2023-10-13T07:07:05;26.70;99.90
6008;DHT22;3032;49.484;11.112;2023-10-13T07:09:36;26.90;99.90
6008;DHT22;3032;49.484;11.112;2023-10-13T07:12:03;27.80;98.80
6008;DHT22;3032;49.484;11.112;2023-10-13T07:14:29;27.80;96.80
6008;DHT22;3032;49.484;11.112;2023-10-13T07:17:04;28.40;97.00
6008;DHT22;3032;49.484;11.112;2023-10-13T07:19:30;28.70;94.70
6008;DHT22;3032;49.484;11.112;2023-10-13T07:22:00;29.40;94.80
6008;DHT22;3032;49.484;11.112;2023-10-13T07:24:45;29.50;93.00
6008;DHT22;3032;49.484;11.112;2023-10-13T07:27:20;29.50;92.00
6008;DHT22;3032;49.484;11.112;2023-10-13T07:29:50;29.70;91.60
6008;DHT22;3032;49.484;11.112;2023-10-13T07:32:22;29.60;90.40
6008;DHT22;3032;49.484;11.112;2023-10-13T07:34:53;28.80;90.80
6008;DHT22;3032;49.484;11.112;2023-10-13T07:37:22;28.70;91.00
6008;DHT22;3032;49.484;11.112;2023-10-13T07:39:50;29.40;91.00
6008;DHT22;3032;49.484;11.112;2023-10-13T07:42:16;29.00;91.60
6008;DHT22;3032;49.484;11.112;2023-10-13T07:44:45;29.80;91.30
6008;DHT22;3032;49.484;11.112;2023-10-13T10:09:56;28.40;77.50
6008;DHT22;3032;49.484;11.112;2023-10-13T10:18:19;28.40;77.50
6008;DHT22;3032;49.484;11.112;2023-10-13T10:57:05;27.70;78.90
6008;DHT22;3032;49.484;11.112;2023-10-13T10:59:38;28.80;76.40
6008;DHT22;3032;49.484;11.112;2023-10-13T11:07:23;29.30;73.70
6008;DHT22;3032;49.484;11.112;2023-10-13T11:09:49;28.50;74.90
6008;DHT22;3032;49.484;11.112;2023-10-13T11:22:39;27.50;80.20
6008;DHT22;3032;49.484;11.112;2023-10-13T11:25:23;27.50;77.20
6008;DHT22;3032;49.484;11.112;2023-10-13T11:27:55;26.90;77.20
6008;DHT22;3032;49.484;11.112;2023-10-13T11:30:22;26.60;78.50
6008;DHT22;3032;49.484;11.112;2023-10-13T14:10:11;28.20;62.60
6008;DHT22;3032;49.484;11.112;2023-10-13T14:12:50;28.20;63.50
6008;DHT22;3032;49.484;11.112;2023-10-13T14:15:15;28.40;61.40
6008;DHT22;3032;49.484;11.112;2023-10-13T14:17:49;28.40;60.40
6008;DHT22;3032;49.484;11.112;2023-10-13T14:20:15;28.10;61.60
6008;DHT22;3032;49.484;11.112;2023-10-13T14:58:59;26.50;64.60
6008;DHT22;3032;49.484;11.112;2023-10-13T15:04:47;26.30;64.80
6008;DHT22;3032;49.484;11.112;2023-10-13T15:07:18;26.50;65.80
6008;DHT22;3032;49.484;11.112;2023-10-13T15:15:30;26.50;64.30
6008;DHT22;3032;49.484;11.112;2023-10-13T15:17:58;26.80;65.60
6008;DHT22;3032;49.484;11.112;2023-10-13T15:20:23;26.40;65.10
6008;DHT22;3032;49.484;11.112;2023-10-13T15:22:49;26.30;65.70
6008;DHT22;3032;49.484;11.112;2023-10-13T15:25:15;26.20;65.90
6008;DHT22;3032;49.484;11.112;2023-10-13T15:28:01;26.10;66.60
6008;DHT22;3032;49.484;11.112;2023-10-13T15:30:33;26.20;65.70
6008;DHT22;3032;49.484;11.112;2023-10-13T15:33:20;26.50;65.90
6008;DHT22;3032;49.484;11.112;2023-10-13T15:35:46;26.60;65.70
6008;DHT22;3032;49.484;11.112;2023-10-13T15:38:12;26.70;65.40
6008;DHT22;3032;49.484;11.112;2023-10-13T15:40:42;26.60;66.20
6008;DHT22;3032;49.484;11.112;2023-10-13T15:43:08;26.70;66.30
6008;DHT22;3032;49.484;11.112;2023-10-13T15:45:34;26.90;65.90
6008;DHT22;3032;49.484;11.112;2023-10-13T15:48:08;26.90;66.30
6008;DHT22;3032;49.484;11.112;2023-10-13T15:50:37;26.90;66.30
6008;DHT22;3032;49.484;11.112;2023-10-13T15:53:06;26.80;66.60
6008;DHT22;3032;49.484;11.112;2023-10-13T15:58:54;26.70;67.30
6008;DHT22;3032;49.484;11.112;2023-10-13T16:01:21;26.50;68.10
6008;DHT22;3032;49.484;11.112;2023-10-13T16:03:49;26.40;67.90
6008;DHT22;3032;49.484;11.112;2023-10-13T16:06:18;26.40;68.00
6008;DHT22;3032;49.484;11.112;2023-10-13T16:08:44;26.30;70.80
6008;DHT22;3032;49.484;11.112;2023-10-13T16:11:12;26.40;70.20
6008;DHT22;3032;49.484;11.112;2023-10-13T16:13:52;26.50;69.90
6008;DHT22;3032;49.484;11.112;2023-10-13T16:16:19;26.40;69.30
6008;DHT22;3032;49.484;11.112;2023-10-13T16:18:48;26.40;69.30
6008;DHT22;3032;49.484;11.112;2023-10-13T16:21:14;26.30;68.60
6008;DHT22;3032;49.484;11.112;2023-10-13T16:23:44;26.20;69.30
6008;DHT22;3032;49.484;11.112;2023-10-13T16:26:58;26.00;68.90
6008;DHT22;3032;49.484;11.112;2023-10-13T16:32:55;25.40;69.90
6008;DHT22;3032;49.484;11.112;2023-10-13T16:35:21;25.50;69.20
6008;DHT22;3032;49.484;11.112;2023-10-13T16:37:48;25.50;70.20
6008;DHT22;3032;49.484;11.112;2023-10-13T16:40:20;25.60;70.30
6008;DHT22;3032;49.484;11.112;2023-10-13T16:42:46;25.60;70.50
6008;DHT22;3032;49.484;11.112;2023-10-13T16:45:12;25.90;72.40
6008;DHT22;3032;49.484;11.112;2023-10-13T16:47:49;25.40;73.30
6008;DHT22;3032;49.484;11.112;2023-10-13T16:50:15;25.20;74.60
6008;DHT22;3032;49.484;11.112;2023-10-13T16:52:46;25.10;75.50
6008;DHT22;3032;49.484;11.112;2023-10-13T16:55:17;25.00;76.10
6008;DHT22;3032;49.484;11.112;2023-10-13T16:57:46;24.90;76.90
6008;DHT22;3032;49.484;11.112;2023-10-13T17:00:16;24.70;77.00
6008;DHT22;3032;49.484;11.112;2023-10-13T17:02:41;24.50;78.40
6008;DHT22;3032;49.484;11.112;2023-10-13T17:05:09;24.30;79.80
6008;DHT22;3032;49.484;11.112;2023-10-13T17:07:35;24.20;80.50
6008;DHT22;3032;49.484;11.112;2023-10-13T17:10:01;24.00;78.90
6008;DHT22;3032;49.484;11.112;2023-10-13T17:12:27;23.80;80.00
6008;DHT22;3032;49.484;11.112;2023-10-13T17:14:54;23.50;79.90
6008;DHT22;3032;49.484;11.112;2023-10-13T17:17:24;23.10;80.30
6008;DHT22;3032;49.484;11.112;2023-10-13T17:19:50;23.30;81.70
6008;DHT22;3032;49.484;11.112;2023-10-13T17:22:17;23.00;80.80
6008;DHT22;3032;49.484;11.112;2023-10-13T17:24:43;23.40;80.40
6008;DHT22;3032;49.484;11.112;2023-10-13T17:27:08;22.70;80.60
6008;DHT22;3032;49.484;11.112;2023-10-13T17:29:35;22.50;80.90
6008;DHT22;3032;49.484;11.112;2023-10-13T17:32:01;22.50;81.40
6008;DHT22;3032;49.484;11.112;2023-10-13T17:34:28;22.90;81.50
6008;DHT22;3032;49.484;11.112;2023-10-13T17:36:54;22.70;82.50
6008;DHT22;3032;49.484;11.112;2023-10-13T17:39:23;22.60;79.60
6008;DHT22;3032;49.484;11.112;2023-10-13T17:41:49;22.50;80.70
6008;DHT22;3032;49.484;11.112;2023-10-13T17:44:15;22.20;80.00
6008;DHT22;3032;49.484;11.112;2023-10-13T17:46:42;22.00;80.90
6008;DHT22;3032;49.484;11.112;2023-10-13T17:49:08;22.20;80.70
6008;DHT22;3032;49.484;11.112;2023-10-13T17:51:33;22.00;80.40
6008;DHT22;3032;49.484;11.112;2023-10-13T17:53:59;22.10;81.10
6008;DHT22;3032;49.484;11.112;2023-10-13T17:56:25;21.70;80.80
6008;DHT22;3032;49.484;11.112;2023-10-13T17:58:50;22.20;81.30
6008;DHT22;3032;49.484;11.112;2023-10-13T18:01:19;21.50;80.80
6008;DHT22;3032;49.484;11.112;2023-10-13T18:03:46;21.50;81.30
6008;DHT22;3032;49.484;11.112;2023-10-13T18:06:14;21.70;81.90
6008;DHT22;3032;49.484;11.112;2023-10-13T18:08:44;21.30;81.30
6008;DHT22;3032;49.484;11.112;2023-10-13T18:11:11;21.30;81.00
6008;DHT22;3032;49.484;11.112;2023-10-13T18:13:43;21.80;81.80
6008;DHT22;3032;49.484;11.112;2023-10-13T18:16:22;21.10;81.20
6008;DHT22;3032;49.484;11.112;2023-10-13T18:18:49;21.10;81.10
6008;DHT22;3032;49.484;11.112;2023-10-13T18:21:22;21.00;81.00
6008;DHT22;3032;49.484;11.112;2023-10-13T18:23:48;21.10;80.50
6008;DHT22;3032;49.484;11.112;2023-10-13T18:26:16;21.30;80.80
6008;DHT22;3032;49.484;11.112;2023-10-13T18:28:42;21.00;80.60
6008;DHT22;3032;49.484;11.112;2023-10-13T18:31:09;20.90;80.60
6008;DHT22;3032;49.484;11.112;2023-10-13T18:33:39;20.90;80.90
6008;DHT22;3032;49.484;11.112;2023-10-13T18:36:14;20.90;81.80
6008;DHT22;3032;49.484;11.112;2023-10-13T18:38:41;20.50;82.00
6008;DHT22;3032;49.484;11.112;2023-10-13T18:41:07;20.60;81.90
6008;DHT22;3032;49.484;11.112;2023-10-13T18:43:36;20.70;80.80
6008;DHT22;3032;49.484;11.112;2023-10-13T18:46:04;21.20;81.50
6008;DHT22;3032;49.484;11.112;2023-10-13T18:54:29;20.90;80.00
6008;DHT22;3032;49.484;11.112;2023-10-13T18:56:55;21.10;79.80
6008;DHT22;3032;49.484;11.112;2023-10-13T18:59:21;21.30;80.20
6008;DHT22;3032;49.484;11.112;2023-10-13T19:01:46;20.70;80.10
6008;DHT22;3032;49.484;11.112;2023-10-13T19:04:12;21.00;81.20
6008;DHT22;3032;49.484;11.112;2023-10-13T19:06:38;20.50;80.80
6008;DHT22;3032;49.484;11.112;2023-10-13T19:09:05;20.80;81.00
6008;DHT22;3032;49.484;11.112;2023-10-13T19:11:32;20.60;80.80
6008;DHT22;3032;49.484;11.112;2023-10-13T19:14:03;20.60;80.60
6008;DHT22;3032;49.484;11.112;2023-10-13T19:16:29;20.50;80.90
6008;DHT22;3032;49.484;11.112;2023-10-13T19:18:56;20.40;81.00
6008;DHT22;3032;49.484;11.112;2023-10-13T19:21:28;20.40;80.80
6008;DHT22;3032;49.484;11.112;2023-10-13T19:23:54;20.40;80.70
6008;DHT22;3032;49.484;11.112;2023-10-13T19:26:24;20.30;80.70
6008;DHT22;3032;49.484;11.112;2023-10-13T19:28:57;20.30;81.50
6008;DHT22;3032;49.484;11.112;2023-10-13T19:31:27;20.30;80.70
6008;DHT22;3032;49.484;11.112;2023-10-13T19:33:57;20.20;81.00
6008;DHT22;3032;49.484;11.112;2023-10-13T19:36:27;20.10;81.50
6008;DHT22;3032;49.484;11.112;2023-10-13T19:38:53;20.40;82.30
6008;DHT22;3032;49.484;11.112;2023-10-13T19:41:21;20.40;82.30
6008;DHT22;3032;49.484;11.112;2023-10-13T19:43:54;20.20;82.10
6008;DHT22;3032;49.484;11.112;2023-10-13T19:46:26;19.80;82.40
6008;DHT22;3032;49.484;11.112;2023-10-13T19:48:52;19.70;83.10
6008;DHT22;3032;49.484;11.112;2023-10-13T19:51:18;19.70;82.90
6008;DHT22;3032;49.484;11.112;2023-10-13T19:53:51;19.80;82.80
6008;DHT22;3032;49.484;11.112;2023-10-13T19:56:18;19.80;82.40
6008;DHT22;3032;49.484;11.112;2023-10-13T19:58:45;19.80;82.60
6008;DHT22;3032;49.484;11.112;2023-10-13T20:01:12;20.50;83.10
6008;DHT22;3032;49.484;11.112;2023-10-13T20:03:42;20.30;83.00
6008;DHT22;3032;49.484;11.112;2023-10-13T20:06:08;20.20;82.70
6008;DHT22;3032;49.484;11.112;2023-10-13T20:08:35;19.80;82.20
6008;DHT22;3032;49.484;11.112;2023-10-13T20:11:10;19.80;82.50
6008;DHT22;3032;49.484;11.112;2023-10-13T20:13:38;19.90;82.50
6008;DHT22;3032;49.484;11.112;2023-10-13T20:16:06;20.60;82.00
6008;DHT22;3032;49.484;11.112;2023-10-13T20:18:34;20.20;81.70
6008;DHT22;3032;49.484;11.112;2023-10-13T20:21:00;20.60;81.80
6008;DHT22;3032;49.484;11.112;2023-10-13T20:23:27;20.30;81.00
6008;DHT22;3032;49.484;11.112;2023-10-13T20:25:53;20.40;80.50
6008;DHT22;3032;49.484;11.112;2023-10-13T20:28:18;20.00;81.20
6008;DHT22;3032;49.484;11.112;2023-10-13T20:30:46;19.90;81.70
6008;DHT22;3032;49.484;11.112;2023-10-13T20:33:14;20.20;82.40
6008;DHT22;3032;49.484;11.112;2023-10-13T20:35:47;19.80;82.20
6008;DHT22;3032;49.484;11.112;2023-10-13T20:38:12;20.30;83.10
6008;DHT22;3032;49.484;11.112;2023-10-13T20:40:38;19.70;82.60
6008;DHT22;3032;49.484;11.112;2023-10-13T20:43:03;19.80;82.80
6008;DHT22;3032;49.484;11.112;2023-10-13T20:45:29;19.70;83.10
6008;DHT22;3032;49.484;11.112;2023-10-13T20:47:59;19.60;83.10
6008;DHT22;3032;49.484;11.112;2023-10-13T20:50:25;19.40;83.70
6008;DHT22;3032;49.484;11.112;2023-10-13T20:52:50;19.80;84.90
6008;DHT22;3032;49.484;11.112;2023-10-13T20:55:17;19.20;84.20
6008;DHT22;3032;49.484;11.112;2023-10-13T20:57:44;19.60;85.80
6008;DHT22;3032;49.484;11.112;2023-10-13T21:00:11;19.80;85.80
6008;DHT22;3032;49.484;11.112;2023-10-13T21:02:46;19.30;85.00
6008;DHT22;3032;49.484;11.112;2023-10-13T21:05:13;19.80;84.70
6008;DHT22;3032;49.484;11.112;2023-10-13T21:07:39;19.70;84.10
6008;DHT22;3032;49.484;11.112;2023-10-13T21:10:09;19.80;84.40
6008;DHT22;3032;49.484;11.112;2023-10-13T21:12:42;20.00;83.20
6008;DHT22;3032;49.484;11.112;2023-10-13T21:15:14;20.00;83.30
6008;DHT22;3032;49.484;11.112;2023-10-13T21:17:44;20.10;83.30
6008;DHT22;3032;49.484;11.112;2023-10-13T21:20:11;20.70;84.40
6008;DHT22;3032;49.484;11.112;2023-10-13T21:22:48;20.20;83.90
6008;DHT22;3032;49.484;11.112;2023-10-13T21:25:17;20.20;85.50
6008;DHT22;3032;49.484;11.112;2023-10-13T21:27:57;20.20;86.00
6008;DHT22;3032;49.484;11.112;2023-10-13T21:30:30;20.20;86.40
6008;DHT22;3032;49.484;11.112;2023-10-13T21:32:57;20.70;87.70
6008;DHT22;3032;49.484;11.112;2023-10-13T21:35:24;20.30;87.90
6008;DHT22;3032;49.484;11.112;2023-10-13T21:37:52;20.10;88.10
6008;DHT22;3032;49.484;11.112;2023-10-13T21:40:22;20.20;89.40
6008;DHT22;3032;49.484;11.112;2023-10-13T21:42:48;19.90;89.70
6008;DHT22;3032;49.484;11.112;2023-10-13T21:45:17;19.60;90.10
6008;DHT22;3032;49.484;11.112;2023-10-13T21:47:43;20.00;90.60
6008;DHT22;3032;49.484;11.112;2023-10-13T21:50:09;19.30;90.30
6008;DHT22;3032;49.484;11.112;2023-10-13T21:52:39;19.50;90.80
6008;DHT22;3032;49.484;11.112;2023-10-13T21:55:07;19.10;90.70
6008;DHT22;3032;49.484;11.112;2023-10-13T21:57:50;19.30;91.10
6008;DHT22;3032;49.484;11.112;2023-10-13T22:00:19;19.00;90.80
6008;DHT22;3032;49.484;11.112;2023-10-13T22:03:00;19.20;91.20
6008;DHT22;3032;49.484;11.112;2023-10-13T22:05:28;18.80;91.70
6008;DHT22;3032;49.484;11.112;2023-10-13T22:08:00;18.00;93.40
6008;DHT22;3032;49.484;11.112;2023-10-13T22:10:26;18.60;94.40
6008;DHT22;3032;49.484;11.112;2023-10-13T22:12:51;18.10;94.40
6008;DHT22;3032;49.484;11.112;2023-10-13T22:15:20;18.30;94.20
6008;DHT22;3032;49.484;11.112;2023-10-13T22:17:47;18.50;93.90
6008;DHT22;3032;49.484;11.112;2023-10-13T22:20:13;18.00;92.70
6008;DHT22;3032;49.484;11.112;2023-10-13T22:22:43;18.00;92.40
6008;DHT22;3032;49.484;11.112;2023-10-13T22:25:10;18.20;92.70
6008;DHT22;3032;49.484;11.112;2023-10-13T22:27:39;18.90;92.20
6008;DHT22;3032;49.484;11.112;2023-10-13T22:30:10;18.70;91.20
6008;DHT22;3032;49.484;11.112;2023-10-13T22:32:40;18.70;90.80
6008;DHT22;3032;49.484;11.112;2023-10-13T22:35:06;18.70;90.80
6008;DHT22;3032;49.484;11.112;2023-10-13T22:37:35;19.10;90.30
6008;DHT22;3032;49.484;11.112;2023-10-13T22:40:01;19.60;88.60
6008;DHT22;3032;49.484;11.112;2023-10-13T22:42:34;20.20;88.40
6008;DHT22;3032;49.484;11.112;2023-10-13T22:45:00;19.50;87.30
6008;DHT22;3032;49.484;11.112;2023-10-13T22:47:25;19.60;88.10
6008;DHT22;3032;49.484;11.112;2023-10-13T22:49:51;19.50;88.00
6008;DHT22;3032;49.484;11.112;2023-10-13T22:52:16;19.80;88.40
6008;DHT22;3032;49.484;11.112;2023-10-13T22:54:42;19.60;87.80
6008;DHT22;3032;49.484;11.112;2023-10-13T22:57:10;19.80;86.00
6008;DHT22;3032;49.484;11.112;2023-10-13T22:59:36;19.80;85.30
6008;DHT22;3032;49.484;11.112;2023-10-13T23:02:02;19.80;85.20
6008;DHT22;3032;49.484;11.112;2023-10-13T23:04:29;20.00;85.50
6008;DHT22;3032;49.484;11.112;2023-10-13T23:06:58;19.90;86.90
6008;DHT22;3032;49.484;11.112;2023-10-13T23:09:27;20.40;88.40
6008;DHT22;3032;49.484;11.112;2023-10-13T23:14:22;19.30;89.60
6008;DHT22;3032;49.484;11.112;2023-10-13T23:16:48;19.50;90.50